チューク諸島 の空港の天気 - METARとTAF

チューク国際空港 ( PTKK / TKK ) - ミクロネシア連邦 チューク諸島
飛行場実況気象(Metar)
観測時間01/23 17:51 +10 (01/23 07:51 UTC)
風向・風速北北東 5m/s
視程10km以上
天気現象
少しの雲 雲底高度 430m
全天の8割程度の雲 雲底高度 3660m
全天を覆う雲 雲底高度 8530m
気温28.6℃
湿度80%
気圧1005.7hPa
METARPTKK 230751Z 02010KT 15SM FEW014 BKN120 OVC280 29/25 A2970 RMK SLP057 T02860248
過去の天気等 Google飛行場航空写真 Wunderground天気予報

過去48時間のMETAR

飛行場予報(TAF)
発表時間: 1/23 15:24 +10 (1/23 05:24 UTC)
予報対象時間: 23日16時 +10 ~ 24日16時 +10
風向・風速北東 6m/s
視程10km以上
少しの雲 雲底高度 550m
全天の4割程度の雲 雲底高度 1,520m
全天の4割程度の雲 雲底高度 4,270m
PTKK 230524Z 2306/2406 05012KT P6SM FEW018 SCT050 SCT140